This is the latest recevied weather packets stored in our database for station/object KD8TSA. If no packets are shown the sender has not sent any weather packets the latest 10 day(s).
| Time | Temp. | Humidity | Pressure | Rain* | Wind** | Luminosity | Snow |
|---|---|---|---|---|---|---|---|
| 1777642490 | 10° C | 79% | 1011.6 hPa | 0 mm | - | 101 W/m² | - |
| 1777642186 | 10° C | 79% | 1011.4 hPa | 0 mm | - | 177 W/m² | - |
| 1777641884 | 9.44° C | 80% | 1011.5 hPa | 0 mm | - | 111 W/m² | - |
| 1777641584 | 9.44° C | 80% | 1011.7 hPa | 0 mm | - | 102 W/m² | - |
| 1777641283 | 8.89° C | 80% | 1011.7 hPa | 0 mm | - | 108 W/m² | - |
| 1777640980 | 8.89° C | 80% | 1011.8 hPa | 0 mm | - | 73 W/m² | - |
| 1777640677 | 8.89° C | 80% | 1011.5 hPa | 0 mm | - | 58 W/m² | - |
| 1777640373 | 8.89° C | 80% | 1011.7 hPa | 0 mm | - | 65 W/m² | - |
| 1777640070 | 8.89° C | 80% | 1011.3 hPa | 0 mm | - | 122 W/m² | - |
| 1777639767 | 8.33° C | 80% | 1011.6 hPa | 0 mm | - | 63 W/m² | - |
| 1777639465 | 8.33° C | 81% | 1011.6 hPa | 0 mm | - | 73 W/m² | - |
| 1777639161 | 8.33° C | 81% | 1011.6 hPa | 0 mm | - | 106 W/m² | - |
| 1777638858 | 8.33° C | 82% | 1011.8 hPa | 0 mm | - | 82 W/m² | - |
| 1777638553 | 8.33° C | 82% | 1011.5 hPa | 0 mm | - | 79 W/m² | - |
| 1777638250 | 8.33° C | 82% | 1011.5 hPa | 0 mm | - | 81 W/m² | - |
| 1777637946 | 7.78° C | 82% | 1011.8 hPa | 0 mm | - | 70 W/m² | - |
| 1777637642 | 7.78° C | 81% | 1011.7 hPa | 0 mm | - | 40 W/m² | - |
| 1777637340 | 7.78° C | 81% | 1011.6 hPa | 0 mm | - | 28 W/m² | - |
| 1777637036 | 7.78° C | 81% | 1011.5 hPa | 0 mm | - | 36 W/m² | - |
| 1777636732 | 7.78° C | 81% | 1011.6 hPa | 0 mm | - | 37 W/m² | - |
| 1777636428 | 7.22° C | 81% | 1011.6 hPa | 0 mm | - | 56 W/m² | - |
| 1777636124 | 7.22° C | 81% | 1011.6 hPa | 0 mm | - | 44 W/m² | - |
| 1777635819 | 7.22° C | 82% | 1011.6 hPa | 0 mm | - | 59 W/m² | - |
| 1777635516 | 6.67° C | 82% | 1011.7 hPa | 0 mm | - | 31 W/m² | - |
| 1777635213 | 6.67° C | 82% | 1012 hPa | 0 mm | - | 20 W/m² | - |
* Rain latest hour (hover to see other rain measurements)
** Current wind speed in m/s (hover to see current wind gust speed)